Fultonville, New York
Current Conditions -  °F | °C
As of 6:15 AM on Tuesday 21 Oct 2014 (Local Time) from KNY0 Reporting Station
Overcast Overcast  
Wind Chill: 40°   Ceiling: 5500
Heat Index: 43°   Visibility: 10mi
Dew Point: 40°   Wind: 5mph
Humidity: 88%   Direction: 60°ENE
Pressure: 29.89"   Gusts: NA
Location:  42.95°N, 74.37°W
Report Text: KNY0 211015Z AUTO 06004KT 10SM OVC055 06/04 A2989 RMK AO2 T00620043
Loading
Personal Weather Stations






























Interactive Weather Map
Tropical Storm Tracking
New forecast layout! Learn more

10-Day Weather Forecast

Advertisements
Track Severe Weather on mobile